CYYY

Details ICAO CYYY (YYY)
Name MONT JOLI
Region Canada
Timezone America/Montreal (UTC-5.0)
Plans Departing 13
Arriving 11
Stats Elevation 172 ft / 52 m (AMSL)
Location 48.607251° -68.209228°
Runways 2
Magnetic Variation 17.643° W
Sunrise 2017-12-11 12:16:45 UTC / 2017-12-11 07:16:45 Local
Sunset 2017-12-11 20:38:31 UTC / 2017-12-11 15:38:31 Local
Advertisement - Login to hide

Runways

ID Width Length Bearing (true) Bearing (mag) Surface Threshold Offset Overrun Length
06 150 ft / 46 m 5,986 ft / 1,824 m 38.83° 56.47° Asphalt 500 ft / 152 m 0 ft / 0 m
15 150 ft / 46 m 3,929 ft / 1,197 m 132.96° 150.60° Asphalt 0 ft / 0 m 0 ft / 0 m
24 150 ft / 46 m 5,986 ft / 1,824 m 218.84° 236.48° Asphalt 0 ft / 0 m 0 ft / 0 m
33 150 ft / 46 m 3,929 ft / 1,197 m 312.97° 330.61° Asphalt 230 ft / 70 m 0 ft / 0 m

Approach Navaids

Runway Type Ident Frequency Range Bearing (true) Bearing (mag) Slope Elevation
06 Localiser IYY 109.70 MHz 18 nm / 33 km 38.40° 56.04° - 172 ft / 52 m (AMSL)

Map

Weather


0- 5 10 15 20 25 30 35+ Temperature / ° C

Clouds and Precipitation
Forecast for 2017-12-11 12:00 UTC. Updated an hour ago

Ground ~20,000 ft ~40,000 ft Winds

METAR

CYYY 110800Z 27011G20KT 30SM BKN027 M12/M17 A2987 RMK SC7 SLP120

TAF

TAF CYYY 110738Z 1108/1120 28012G22KT P6SM BKN030 BKN080 TEMPO 1108/1120 3SM -SHSN OVC020 BECMG 1118/1120 30005KT RMK NXT FCST BY 111400Z
Warning: Do not use this data for real-world aviation or navigation. No guarantee of current accuracy is given.